Time;durP1;ratioP1;P1;durP2;ratioP2;P2;SDS_P1;SDS_P2;PMS_P1;PMS_P2;Temp;Humidity;BMP_temperature;BMP_pressure;BME280_temperature;BME280_humidity;BME280_pressure;Samples;Min_cycle;Max_cycle;Signal;HPM_P1;HPM_P2
2021/08/28 00:00:30;;;;;;;5.20;2.80;;;16.60;99.90;;;;;;5072113;28;20208;-63
2021/08/28 00:02:57;;;;;;;2.53;2.30;;;16.70;99.90;;;;;;5072094;28;20712;-63
2021/08/28 00:05:23;;;;;;;3.50;2.60;;;16.70;99.90;;;;;;5071819;28;20672;-62
2021/08/28 00:07:50;;;;;;;3.20;2.60;;;16.70;99.90;;;;;;5071879;28;20715;-63
2021/08/28 00:10:17;;;;;;;4.43;2.80;;;16.70;99.90;;;;;;5072004;28;20497;-63
2021/08/28 00:12:44;;;;;;;3.20;2.50;;;16.70;99.90;;;;;;5071896;28;20233;-62
2021/08/28 00:15:11;;;;;;;3.63;2.73;;;16.70;99.90;;;;;;5071598;28;20261;-62
2021/08/28 00:17:41;;;;;;;3.67;3.07;;;16.70;99.90;;;;;;5072097;28;20636;-63
2021/08/28 00:20:10;;;;;;;5.37;2.70;;;16.70;99.90;;;;;;5071855;28;20309;-62
2021/08/28 00:22:37;;;;;;;4.23;3.27;;;16.60;99.90;;;;;;5071679;28;20704;-62
2021/08/28 00:25:06;;;;;;;4.13;2.70;;;16.60;99.90;;;;;;5071642;28;20576;-62
2021/08/28 00:27:34;;;;;;;4.70;3.00;;;16.70;99.90;;;;;;5071559;28;20708;-63
2021/08/28 00:30:01;;;;;;;5.83;2.93;;;16.70;99.90;;;;;;5071958;28;20240;-63
2021/08/28 00:32:28;;;;;;;4.20;2.90;;;16.70;99.90;;;;;;5071803;28;20208;-62
2021/08/28 00:34:56;;;;;;;4.97;2.90;;;16.70;99.90;;;;;;5071441;28;20212;-63
2021/08/28 00:37:23;;;;;;;5.00;2.90;;;16.70;99.90;;;;;;5071341;28;20205;-62
2021/08/28 00:39:50;;;;;;;3.67;2.67;;;16.80;99.90;;;;;;5071491;28;20200;-62
2021/08/28 00:42:16;;;;;;;3.57;2.40;;;16.70;99.90;;;;;;5070889;28;20619;-63
2021/08/28 00:44:44;;;;;;;5.87;2.90;;;16.70;99.90;;;;;;5071179;28;20212;-62
2021/08/28 00:47:15;;;;;;;4.13;3.00;;;16.70;99.90;;;;;;5071240;28;20205;-63
2021/08/28 00:49:42;;;;;;;5.77;3.40;;;16.70;99.90;;;;;;5071342;28;20239;-63
2021/08/28 00:52:10;;;;;;;4.70;3.40;;;16.70;99.90;;;;;;5071095;28;20209;-63
2021/08/28 00:54:39;;;;;;;6.87;3.47;;;16.70;99.90;;;;;;5070724;28;20205;-62
2021/08/28 00:57:08;;;;;;;3.77;3.00;;;16.70;99.90;;;;;;5070428;28;20734;-63
2021/08/28 00:59:35;;;;;;;4.53;3.17;;;16.80;99.90;;;;;;5070975;28;20209;-62
2021/08/28 01:02:03;;;;;;;3.60;3.30;;;16.70;99.90;;;;;;5071254;28;20200;-63
2021/08/28 01:04:38;;;;;;;4.93;3.37;;;16.70;99.90;;;;;;5070902;28;20278;-62
2021/08/28 01:07:13;;;;;;;4.97;3.22;;;16.70;99.90;;;;;;5071032;28;20238;-63
2021/08/28 01:09:46;;;;;;;6.07;3.33;;;16.80;99.90;;;;;;5071144;28;20373;-62
2021/08/28 01:12:16;;;;;;;3.93;3.20;;;16.80;99.90;;;;;;5071242;28;20208;-63
2021/08/28 01:14:45;;;;;;;8.00;5.80;;;16.80;99.90;;;;;;5070772;28;20201;-62
2021/08/28 01:17:15;;;;;;;4.23;3.80;;;16.80;99.90;;;;;;5070835;28;20576;-62
2021/08/28 01:19:55;;;;;;;6.90;3.77;;;16.80;99.90;;;;;;5070976;28;20208;-62
2021/08/28 01:22:24;;;;;;;5.70;3.33;;;16.80;99.90;;;;;;5070843;28;20211;-62
2021/08/28 01:24:51;;;;;;;4.70;3.40;;;16.80;99.90;;;;;;5070756;28;20209;-63
2021/08/28 01:27:23;;;;;;;6.97;3.65;;;16.70;99.90;;;;;;5070882;28;20232;-62
2021/08/28 01:29:53;;;;;;;3.70;2.80;;;16.70;99.90;;;;;;5070581;28;20684;-63
2021/08/28 01:32:21;;;;;;;4.43;3.03;;;16.70;99.90;;;;;;5070882;28;20291;-63
2021/08/28 01:34:48;;;;;;;4.93;3.30;;;16.70;99.90;;;;;;5070671;28;20204;-62
2021/08/28 01:37:18;;;;;;;4.23;2.77;;;16.70;99.90;;;;;;5070699;28;20296;-62
2021/08/28 01:39:46;;;;;;;3.10;2.67;;;16.80;99.90;;;;;;5070832;28;20208;-62
2021/08/28 01:42:14;;;;;;;5.33;2.90;;;16.80;99.90;;;;;;5070504;28;20213;-62
2021/08/28 01:44:45;;;;;;;5.00;2.63;;;16.80;99.90;;;;;;5070409;28;20210;-62
2021/08/28 01:47:16;;;;;;;3.63;2.50;;;16.80;99.90;;;;;;5070819;28;20234;-63
2021/08/28 01:49:44;;;;;;;4.83;2.40;;;16.90;99.90;;;;;;5070508;28;20228;-62
2021/08/28 01:52:11;;;;;;;3.73;2.40;;;16.90;99.90;;;;;;5070285;28;20665;-63
2021/08/28 01:54:38;;;;;;;5.00;2.57;;;16.90;99.90;;;;;;5070272;28;20696;-62
2021/08/28 01:57:06;;;;;;;2.80;2.30;;;16.90;99.90;;;;;;5070381;28;20209;-63
2021/08/28 01:59:33;;;;;;;4.70;2.60;;;16.80;99.90;;;;;;5070477;28;20211;-64
2021/08/28 02:01:59;;;;;;;2.50;2.30;;;16.70;99.90;;;;;;5070533;28;20239;-62
2021/08/28 02:04:28;;;;;;;2.47;2.23;;;16.80;99.90;;;;;;5070166;28;20229;-62
2021/08/28 02:07:02;;;;;;;3.60;2.67;;;16.80;99.90;;;;;;5071545;28;20295;-61
2021/08/28 02:09:37;;;;;;;3.70;2.50;;;16.80;99.90;;;;;;5073950;28;20625;-62
2021/08/28 02:12:12;;;;;;;5.00;3.20;;;16.80;99.90;;;;;;5074412;28;20631;-64
2021/08/28 02:14:47;;;;;;;6.27;3.80;;;16.80;99.90;;;;;;5074044;28;20204;-63
2021/08/28 02:17:15;;;;;;;5.43;3.42;;;16.80;99.90;;;;;;5074418;28;20212;-62
2021/08/28 02:19:45;;;;;;;3.08;2.83;;;16.80;99.90;;;;;;5074072;28;20204;-62
2021/08/28 02:22:16;;;;;;;3.83;2.93;;;16.90;99.90;;;;;;5074199;28;20588;-62
2021/08/28 02:24:47;;;;;;;2.83;2.60;;;16.80;99.90;;;;;;5074333;28;20208;-62
2021/08/28 02:27:21;;;;;;;4.90;2.83;;;16.80;99.90;;;;;;5074384;28;20223;-63
2021/08/28 02:29:52;;;;;;;3.65;3.03;;;16.80;99.90;;;;;;5073964;28;20225;-62
2021/08/28 02:32:19;;;;;;;5.60;2.97;;;16.80;99.90;;;;;;5073956;28;20205;-62
2021/08/28 02:34:49;;;;;;;4.70;3.13;;;16.80;99.90;;;;;;5073688;28;20215;-61
2021/08/28 02:37:17;;;;;;;4.33;3.20;;;16.80;99.90;;;;;;5073954;28;20205;-62
2021/08/28 02:39:45;;;;;;;4.33;2.93;;;16.80;99.90;;;;;;5074013;28;20212;-62
2021/08/28 02:42:14;;;;;;;5.80;2.80;;;16.80;99.90;;;;;;5073604;28;20213;-62
2021/08/28 02:44:43;;;;;;;3.90;2.90;;;16.70;99.90;;;;;;5073640;28;20254;-63
2021/08/28 02:47:11;;;;;;;5.23;3.20;;;16.70;99.90;;;;;;5073685;28;20201;-62
2021/08/28 02:49:40;;;;;;;5.83;2.93;;;16.70;99.90;;;;;;5073363;28;20610;-62
2021/08/28 02:52:10;;;;;;;5.13;3.20;;;16.70;99.90;;;;;;5073654;28;20211;-62
2021/08/28 02:54:40;;;;;;;4.00;3.07;;;16.70;99.90;;;;;;5074093;28;20200;-61
2021/08/28 02:57:07;;;;;;;3.83;3.20;;;16.70;99.90;;;;;;5073873;28;20274;-63
2021/08/28 02:59:36;;;;;;;5.43;3.10;;;16.60;99.90;;;;;;5073208;28;20247;-61
2021/08/28 03:02:03;;;;;;;5.37;3.03;;;16.60;99.90;;;;;;5073651;28;20205;-62
2021/08/28 03:04:31;;;;;;;5.40;3.10;;;16.60;99.90;;;;;;5073256;28;20255;-62
2021/08/28 03:06:57;;;;;;;3.50;3.20;;;16.60;99.90;;;;;;5073328;28;20205;-62
2021/08/28 03:09:25;;;;;;;3.93;3.50;;;16.60;99.90;;;;;;5073152;28;20232;-63
2021/08/28 03:11:52;;;;;;;3.50;3.20;;;16.50;99.90;;;;;;5073191;28;20208;-62
2021/08/28 03:14:19;;;;;;;5.00;4.07;;;16.50;99.90;;;;;;5072863;28;20286;-62
2021/08/28 03:16:51;;;;;;;4.53;3.80;;;16.30;99.90;;;;;;5073294;28;20213;-62
2021/08/28 03:19:23;;;;;;;4.83;3.90;;;16.20;99.90;;;;;;5072078;28;20249;-62
2021/08/28 03:21:52;;;;;;;7.67;4.17;;;16.10;99.90;;;;;;5072915;28;20205;-62
2021/08/28 03:24:21;;;;;;;5.20;3.97;;;16.10;99.90;;;;;;5072822;28;20634;-62
2021/08/28 03:26:50;;;;;;;5.37;3.97;;;16.20;99.90;;;;;;5073117;28;20225;-62
2021/08/28 03:29:17;;;;;;;5.20;4.37;;;16.30;99.90;;;;;;5072751;28;20228;-62
2021/08/28 03:31:44;;;;;;;5.93;4.30;;;16.20;99.90;;;;;;5072755;28;20638;-62
2021/08/28 03:34:14;;;;;;;6.33;4.40;;;16.20;99.90;;;;;;5072564;28;20228;-62
2021/08/28 03:36:42;;;;;;;7.87;4.30;;;16.20;99.90;;;;;;5072668;28;20214;-61
2021/08/28 03:39:09;;;;;;;7.80;4.37;;;16.10;99.90;;;;;;5072371;28;20211;-62
2021/08/28 03:41:36;;;;;;;6.33;4.50;;;16.10;99.90;;;;;;5072579;28;20212;-61
2021/08/28 03:44:05;;;;;;;7.20;4.47;;;16.10;99.90;;;;;;5121043;22;20269;-59
2021/08/28 03:46:33;;;;;;;5.97;5.30;;;16.10;99.90;;;;;;5113176;28;20227;-60
2021/08/28 03:48:59;;;;;;;5.87;4.83;;;16.20;99.90;;;;;;5113493;28;20269;-60
2021/08/28 03:51:26;;;;;;;5.00;4.50;;;16.30;99.90;;;;;;5113187;28;20210;-60
2021/08/28 03:53:53;;;;;;;6.97;5.57;;;16.30;99.90;;;;;;5112729;28;20223;-59
2021/08/28 03:56:19;;;;;;;5.95;5.10;;;16.40;99.90;;;;;;5113150;28;20696;-59
2021/08/28 03:58:46;;;;;;;7.47;5.27;;;16.40;99.90;;;;;;5113135;28;20268;-59
2021/08/28 04:01:14;;;;;;;5.57;4.73;;;16.40;99.90;;;;;;5112914;28;20260;-60
2021/08/28 04:03:41;;;;;;;7.20;6.17;;;16.50;99.90;;;;;;5112691;28;20223;-60
2021/08/28 04:06:07;;;;;;;6.70;5.83;;;16.40;99.90;;;;;;5112464;28;20211;-60
2021/08/28 04:08:34;;;;;;;6.63;5.93;;;16.40;99.90;;;;;;5112596;28;20678;-59
2021/08/28 04:11:01;;;;;;;8.93;6.30;;;16.30;99.90;;;;;;5112829;28;20204;-60
2021/08/28 04:13:27;;;;;;;9.57;7.07;;;16.30;99.90;;;;;;5112585;28;20227;-59
2021/08/28 04:15:55;;;;;;;8.00;7.20;;;16.30;99.90;;;;;;5112781;28;20210;-60
2021/08/28 04:18:23;;;;;;;7.90;7.10;;;16.30;99.90;;;;;;5112519;28;20227;-59
2021/08/28 04:20:50;;;;;;;10.53;8.50;;;16.30;99.90;;;;;;5112705;28;20207;-60
2021/08/28 04:23:16;;;;;;;8.50;7.30;;;16.30;99.90;;;;;;5112755;28;20223;-60
2021/08/28 04:25:43;;;;;;;9.77;7.70;;;16.30;99.90;;;;;;5112357;28;20208;-59
2021/08/28 04:28:10;;;;;;;8.77;7.70;;;16.30;99.90;;;;;;5112709;28;20241;-59
2021/08/28 04:30:38;;;;;;;10.33;8.30;;;16.40;99.90;;;;;;5111906;28;20223;-60
2021/08/28 04:33:04;;;;;;;8.47;7.57;;;16.30;99.90;;;;;;5112136;28;20231;-59
2021/08/28 04:35:32;;;;;;;9.77;7.60;;;16.30;99.90;;;;;;5112222;28;20587;-60
2021/08/28 04:37:59;;;;;;;8.63;7.67;;;16.30;99.90;;;;;;5112229;28;20207;-60
2021/08/28 04:40:26;;;;;;;10.33;8.13;;;16.40;99.90;;;;;;5112229;28;20667;-59
2021/08/28 04:42:53;;;;;;;10.60;7.97;;;16.40;99.90;;;;;;5111806;28;20243;-60
2021/08/28 04:45:19;;;;;;;9.57;7.93;;;16.40;99.90;;;;;;5112145;28;20214;-60
2021/08/28 04:47:46;;;;;;;8.90;7.70;;;16.40;99.90;;;;;;5111797;28;20208;-59
2021/08/28 04:50:13;;;;;;;10.70;9.60;;;16.30;99.90;;;;;;5111758;28;20238;-59
2021/08/28 04:52:41;;;;;;;10.70;9.60;;;16.30;99.90;;;;;;5112155;28;20241;-59
2021/08/28 04:55:08;;;;;;;10.83;9.73;;;16.30;99.90;;;;;;5111861;28;20252;-59
2021/08/28 04:57:34;;;;;;;11.82;10.52;;;16.30;99.90;;;;;;5112164;28;20219;-59
2021/08/28 05:00:01;;;;;;;13.60;11.47;;;16.40;99.90;;;;;;5111915;28;20210;-60
2021/08/28 05:02:28;;;;;;;12.90;11.13;;;16.40;99.90;;;;;;5111605;28;20698;-60
2021/08/28 05:04:55;;;;;;;13.73;10.80;;;16.50;99.90;;;;;;5111848;28;20628;-59
2021/08/28 05:07:21;;;;;;;13.13;11.70;;;16.50;99.90;;;;;;5113680;28;20215;-59
2021/08/28 05:09:49;;;;;;;11.93;10.57;;;16.50;99.90;;;;;;5114342;28;20219;-60
2021/08/28 05:12:16;;;;;;;12.35;11.15;;;16.50;99.90;;;;;;5112155;28;20211;-59
2021/08/28 05:14:43;;;;;;;15.73;12.10;;;16.50;99.90;;;;;;5111356;28;20228;-59
2021/08/28 05:17:09;;;;;;;12.93;11.53;;;16.40;99.90;;;;;;5111350;28;20695;-59
2021/08/28 05:19:36;;;;;;;14.00;11.80;;;16.40;99.90;;;;;;5111199;28;20582;-60
2021/08/28 05:22:03;;;;;;;13.40;12.00;;;16.40;99.90;;;;;;5111208;28;20218;-60
2021/08/28 05:24:34;;;;;;;12.40;11.10;;;16.40;99.90;;;;;;5111498;28;20228;-59
2021/08/28 05:27:02;;;;;;;12.87;11.53;;;16.50;99.90;;;;;;5112097;28;20203;-60
2021/08/28 05:29:29;;;;;;;14.10;11.77;;;16.50;99.90;;;;;;5111245;28;20216;-59
2021/08/28 05:31:56;;;;;;;13.77;12.37;;;16.50;99.90;;;;;;5111603;28;20203;-59
2021/08/28 05:34:23;;;;;;;12.50;11.27;;;16.50;99.90;;;;;;5111377;28;20223;-60
2021/08/28 05:36:49;;;;;;;13.33;11.53;;;16.50;99.90;;;;;;5111430;28;20218;-59
2021/08/28 05:39:16;;;;;;;11.50;10.37;;;16.40;99.90;;;;;;5111326;28;20208;-59
2021/08/28 05:41:42;;;;;;;11.87;10.77;;;16.40;99.90;;;;;;5113282;28;20211;-59
2021/08/28 05:44:11;;;;;;;11.73;10.53;;;16.20;99.90;;;;;;5117677;28;20230;-60
2021/08/28 05:46:38;;;;;;;17.83;12.43;;;16.20;99.90;;;;;;5117942;28;20233;-60
2021/08/28 05:49:05;;;;;;;14.07;11.17;;;16.30;99.90;;;;;;5118318;28;20774;-59
2021/08/28 05:51:31;;;;;;;17.20;12.80;;;16.40;99.90;;;;;;5118676;28;20629;-60
2021/08/28 05:53:58;;;;;;;16.03;12.60;;;16.40;99.90;;;;;;5118149;28;20223;-59
2021/08/28 05:56:25;;;;;;;15.20;13.07;;;16.50;99.90;;;;;;5118009;27;20211;-59
2021/08/28 05:58:51;;;;;;;14.37;12.87;;;16.60;99.90;;;;;;5117769;28;20199;-60
2021/08/28 06:01:19;;;;;;;14.83;12.87;;;16.70;99.90;;;;;;5118032;28;20670;-59
2021/08/28 06:03:46;;;;;;;13.00;11.27;;;16.80;99.90;;;;;;5117751;28;20231;-60
2021/08/28 06:06:13;;;;;;;12.33;11.13;;;16.80;99.90;;;;;;5117951;28;20322;-60
2021/08/28 06:08:39;;;;;;;11.57;10.10;;;16.70;99.90;;;;;;5117869;28;20215;-59
2021/08/28 06:11:06;;;;;;;12.00;10.10;;;16.80;99.90;;;;;;5117840;28;20231;-59
2021/08/28 06:13:33;;;;;;;11.40;10.30;;;16.60;99.90;;;;;;5117766;28;20234;-59
2021/08/28 06:15:59;;;;;;;11.57;10.20;;;16.50;99.90;;;;;;5117895;28;20203;-60
2021/08/28 06:18:27;;;;;;;14.47;11.70;;;16.50;99.90;;;;;;5117839;28;20211;-59
2021/08/28 06:20:54;;;;;;;12.63;10.03;;;16.70;99.90;;;;;;5117895;28;20212;-61
2021/08/28 06:23:21;;;;;;;12.70;10.20;;;17.00;99.90;;;;;;5117617;28;20238;-60
2021/08/28 06:25:47;;;;;;;10.90;9.65;;;17.20;99.90;;;;;;5117434;28;20199;-61
2021/08/28 06:28:14;;;;;;;10.35;9.35;;;17.50;99.90;;;;;;5117670;28;20207;-60
2021/08/28 06:30:42;;;;;;;10.85;8.40;;;17.70;99.90;;;;;;5117663;28;20223;-59
2021/08/28 06:33:09;;;;;;;10.60;8.27;;;17.80;99.90;;;;;;5117721;28;20229;-60
2021/08/28 06:35:37;;;;;;;8.50;7.00;;;18.00;99.90;;;;;;5117547;28;20210;-60
2021/08/28 06:38:03;;;;;;;8.13;7.30;;;18.20;99.90;;;;;;5117436;28;20682;-59
2021/08/28 06:40:30;;;;;;;8.65;7.32;;;18.40;99.90;;;;;;5117461;28;20204;-59
2021/08/28 06:42:57;;;;;;;11.80;10.30;;;18.50;99.90;;;;;;5117318;28;20287;-59
2021/08/28 06:45:24;;;;;;;7.22;6.05;;;18.80;99.90;;;;;;5117724;28;20230;-60
2021/08/28 06:47:50;;;;;;;6.40;5.72;;;19.10;99.90;;;;;;5117804;28;20230;-58
2021/08/28 06:50:17;;;;;;;8.77;6.45;;;19.20;99.90;;;;;;5117271;28;20227;-59
2021/08/28 06:52:45;;;;;;;8.02;5.35;;;19.20;99.90;;;;;;5116779;28;20211;-58
2021/08/28 06:55:12;;;;;;;7.95;5.40;;;18.80;99.90;;;;;;5113901;28;20257;-58
2021/08/28 06:57:39;;;;;;;6.93;5.03;;;18.40;99.90;;;;;;5114409;28;20211;-59
2021/08/28 07:00:07;;;;;;;5.22;4.72;;;18.40;99.90;;;;;;5113986;28;20211;-59
2021/08/28 07:02:33;;;;;;;6.03;5.00;;;18.80;99.90;;;;;;5114017;27;20233;-59
2021/08/28 07:05:00;;;;;;;5.15;4.63;;;19.10;99.90;;;;;;5113929;28;20215;-60
2021/08/28 07:07:29;;;;;;;5.60;5.10;;;19.60;99.90;;;;;;5114280;28;20203;-60
2021/08/28 07:09:57;;;;;;;5.55;4.47;;;20.00;99.90;;;;;;5113794;28;20227;-58
2021/08/28 07:12:24;;;;;;;4.65;3.88;;;20.40;99.90;;;;;;5113808;28;20214;-59
2021/08/28 07:14:51;;;;;;;4.43;3.75;;;20.00;99.90;;;;;;5113611;28;20251;-59
2021/08/28 07:17:18;;;;;;;5.88;3.95;;;19.60;99.90;;;;;;5113842;28;20207;-59
2021/08/28 07:19:44;;;;;;;4.60;3.80;;;19.40;99.90;;;;;;5114109;28;20196;-58
2021/08/28 07:22:11;;;;;;;4.65;4.00;;;19.00;99.90;;;;;;5113860;28;20239;-61
2021/08/28 07:24:38;;;;;;;4.38;3.95;;;18.50;99.90;;;;;;5113981;28;20219;-60
2021/08/28 07:27:06;;;;;;;5.10;3.65;;;18.30;99.90;;;;;;5113730;28;20697;-59
2021/08/28 07:29:33;;;;;;;4.43;3.97;;;18.00;99.90;;;;;;5113858;28;20289;-60
2021/08/28 07:32:00;;;;;;;4.68;3.78;;;18.00;99.90;;;;;;5114001;28;20210;-59
2021/08/28 07:34:27;;;;;;;4.85;3.58;;;18.20;99.90;;;;;;5113645;28;20219;-60
2021/08/28 07:36:54;;;;;;;4.72;3.83;;;18.60;99.90;;;;;;5114512;28;20235;-61
2021/08/28 07:39:20;;;;;;;3.88;3.45;;;18.70;99.90;;;;;;5113582;28;20203;-60
2021/08/28 07:41:47;;;;;;;3.55;3.20;;;18.50;99.90;;;;;;5113556;28;20211;-64
2021/08/28 07:44:15;;;;;;;3.47;3.17;;;18.20;99.90;;;;;;5112868;28;20741;-59
2021/08/28 07:46:42;;;;;;;7.07;3.42;;;18.20;99.90;;;;;;5113232;28;20593;-57
2021/08/28 07:49:08;;;;;;;4.25;3.85;;;18.40;99.90;;;;;;5112818;28;20204;-57
2021/08/28 07:51:35;;;;;;;3.90;3.50;;;18.50;99.90;;;;;;5113191;28;20293;-57
2021/08/28 07:54:02;;;;;;;4.55;3.28;;;18.70;99.90;;;;;;5112950;28;20230;-58
2021/08/28 07:56:28;;;;;;;3.85;2.97;;;18.90;99.90;;;;;;5113151;28;20272;-56
2021/08/28 07:58:55;;;;;;;4.07;3.38;;;19.10;99.90;;;;;;5112712;28;20212;-58
2021/08/28 08:01:23;;;;;;;4.40;3.28;;;19.40;99.90;;;;;;5112978;28;20257;-57
2021/08/28 08:03:50;;;;;;;3.63;2.90;;;19.60;99.90;;;;;;5112634;28;20232;-57
2021/08/28 08:06:16;;;;;;;4.70;4.13;;;19.50;99.90;;;;;;5112430;28;20234;-56
2021/08/28 08:08:44;;;;;;;4.20;3.05;;;19.50;99.90;;;;;;5112593;28;20272;-57
2021/08/28 08:11:15;;;;;;;4.03;3.15;;;19.70;99.90;;;;;;5112675;28;20594;-58
2021/08/28 08:13:42;;;;;;;3.33;2.90;;;19.90;99.90;;;;;;5112425;28;20224;-57
2021/08/28 08:16:08;;;;;;;5.43;3.90;;;20.40;99.90;;;;;;5112596;28;20207;-57
2021/08/28 08:18:37;;;;;;;2.97;2.60;;;20.80;99.90;;;;;;5112404;28;20639;-56
2021/08/28 08:21:04;;;;;;;3.08;2.17;;;20.90;99.90;;;;;;5112653;28;20203;-56
2021/08/28 08:23:31;;;;;;;6.05;2.53;;;21.00;99.90;;;;;;5112278;28;20224;-56
2021/08/28 08:25:57;;;;;;;3.17;2.33;;;20.90;99.90;;;;;;5112702;28;20211;-56
2021/08/28 08:28:24;;;;;;;3.42;2.35;;;20.80;99.90;;;;;;5112827;28;20210;-58
2021/08/28 08:30:51;;;;;;;2.10;1.90;;;20.50;99.90;;;;;;5112251;28;20269;-57
2021/08/28 08:33:18;;;;;;;2.72;2.28;;;20.40;99.90;;;;;;5112434;28;20276;-57
2021/08/28 08:35:46;;;;;;;2.00;1.90;;;20.30;99.90;;;;;;5114422;28;20207;-58
2021/08/28 08:38:12;;;;;;;2.50;2.03;;;20.30;99.90;;;;;;5112355;28;20207;-59
2021/08/28 08:40:39;;;;;;;3.28;2.20;;;20.50;99.90;;;;;;5112355;28;20203;-58
2021/08/28 08:43:07;;;;;;;3.58;1.90;;;20.70;99.90;;;;;;5112177;28;20367;-57
2021/08/28 08:45:34;;;;;;;2.70;2.13;;;20.80;99.90;;;;;;5111914;28;20203;-57
2021/08/28 08:48:02;;;;;;;2.40;2.20;;;20.70;99.90;;;;;;5111783;28;20211;-59
2021/08/28 08:50:29;;;;;;;2.45;1.85;;;20.60;99.90;;;;;;5111977;28;20227;-58
2021/08/28 08:53:03;;;;;;;1.35;1.08;;;20.70;99.90;;;;;;5111806;28;20223;-56
2021/08/28 08:55:30;;;;;;;3.47;1.30;;;20.70;99.90;;;;;;5111841;28;20253;-58
2021/08/28 08:57:58;;;;;;;1.75;1.05;;;20.60;99.90;;;;;;5111385;28;20211;-57
2021/08/28 09:00:24;;;;;;;6.68;2.38;;;20.40;99.90;;;;;;5112017;28;20641;-57
2021/08/28 09:02:51;;;;;;;1.98;1.60;;;20.30;99.90;;;;;;5111615;28;20707;-57
2021/08/28 09:05:18;;;;;;;1.33;1.10;;;20.40;99.90;;;;;;5111601;28;20207;-59
2021/08/28 09:07:45;;;;;;;3.20;0.93;;;20.40;99.90;;;;;;5111358;28;20215;-57
2021/08/28 09:10:13;;;;;;;1.02;0.88;;;20.20;99.90;;;;;;5111378;28;20226;-57
2021/08/28 09:12:41;;;;;;;1.20;1.10;;;19.90;99.90;;;;;;5111228;28;20203;-56
2021/08/28 09:15:12;;;;;;;1.50;1.00;;;19.80;99.90;;;;;;5111376;28;20272;-57
2021/08/28 09:17:39;;;;;;;0.93;0.82;;;19.60;99.90;;;;;;5110680;28;20249;-57
2021/08/28 09:20:19;;;;;;;0.98;0.90;;;19.70;99.90;;;;;;5111547;28;20207;-57
2021/08/28 09:22:45;;;;;;;2.05;1.10;;;19.80;99.90;;;;;;5111140;28;20254;-58
2021/08/28 09:25:22;;;;;;;1.35;0.93;;;19.80;99.90;;;;;;5111357;28;20218;-57
2021/08/28 09:27:50;;;;;;;1.38;1.05;;;19.60;99.90;;;;;;5111367;28;20200;-57
2021/08/28 09:30:23;;;;;;;1.45;1.08;;;19.40;99.90;;;;;;5111390;28;20258;-56
2021/08/28 09:32:52;;;;;;;0.80;0.80;;;19.40;99.90;;;;;;5111575;28;20203;-59
2021/08/28 09:35:24;;;;;;;0.80;0.63;;;19.40;99.90;;;;;;5111138;28;20241;-57
2021/08/28 09:37:58;;;;;;;2.65;1.10;;;19.40;99.90;;;;;;5111360;28;20203;-58
2021/08/28 09:40:31;;;;;;;1.55;0.80;;;19.50;99.90;;;;;;5111529;28;20211;-57
2021/08/28 09:43:01;;;;;;;2.38;1.15;;;19.60;99.90;;;;;;5111708;28;20241;-60
2021/08/28 09:45:28;;;;;;;1.23;0.95;;;19.60;99.90;;;;;;5110937;28;20230;-60
2021/08/28 09:47:56;;;;;;;2.45;1.20;;;19.40;99.90;;;;;;5110827;28;20203;-60
2021/08/28 09:50:41;;;;;;;1.05;0.95;;;19.10;99.90;;;;;;5111123;28;20239;-60
2021/08/28 09:53:09;;;;;;;1.63;1.10;;;18.60;99.90;;;;;;5111102;28;20231;-58
2021/08/28 09:55:39;;;;;;;1.83;1.20;;;18.40;99.90;;;;;;5110675;28;20208;-60
2021/08/28 09:58:08;;;;;;;0.90;0.90;;;18.30;99.90;;;;;;5110786;28;20203;-60
2021/08/28 10:00:41;;;;;;;1.38;1.00;;;18.40;99.90;;;;;;5110993;28;20249;-59
2021/08/28 10:03:08;;;;;;;0.90;0.70;;;18.50;99.90;;;;;;5111049;28;20280;-59
2021/08/28 10:05:36;;;;;;;1.13;1.02;;;18.40;99.90;;;;;;5110449;28;20289;-61
2021/08/28 10:08:05;;;;;;;1.10;0.90;;;18.30;99.90;;;;;;5090250;28;20242;-62
2021/08/28 10:10:34;;;;;;;1.90;1.20;;;18.30;99.90;;;;;;5090459;28;20243;-58
2021/08/28 10:13:03;;;;;;;1.17;0.85;;;18.20;99.90;;;;;;5090177;28;20234;-60
2021/08/28 10:15:32;;;;;;;1.50;1.10;;;18.20;99.90;;;;;;5090604;28;20208;-60
2021/08/28 10:18:00;;;;;;;1.95;1.50;;;18.20;99.90;;;;;;5090165;28;20204;-60
2021/08/28 10:20:29;;;;;;;1.65;1.30;;;18.30;99.90;;;;;;5090386;28;20200;-61
2021/08/28 10:22:57;;;;;;;1.73;1.30;;;18.50;99.90;;;;;;5090294;28;20224;-63
2021/08/28 10:25:27;;;;;;;2.20;1.58;;;18.70;99.90;;;;;;5090253;28;20212;-63
2021/08/28 10:27:55;;;;;;;2.00;1.30;;;19.00;99.90;;;;;;5091156;28;20204;-64
2021/08/28 10:30:26;;;;;;;2.42;1.92;;;19.20;99.90;;;;;;5094119;28;20205;-63
2021/08/28 10:32:53;;;;;;;2.08;1.38;;;19.20;99.90;;;;;;5094212;28;20608;-59
2021/08/28 10:35:22;;;;;;;1.40;1.30;;;19.20;99.90;;;;;;5093932;28;20269;-60
2021/08/28 10:37:49;;;;;;;1.90;1.40;;;19.00;99.90;;;;;;5093814;28;20668;-63
2021/08/28 10:40:20;;;;;;;2.00;1.73;;;18.80;99.90;;;;;;5093935;28;20209;-62
2021/08/28 10:42:50;;;;;;;2.42;1.70;;;18.90;99.90;;;;;;5093771;28;20671;-59
2021/08/28 10:45:24;;;;;;;1.70;1.60;;;19.00;99.90;;;;;;5093986;28;20672;-61
2021/08/28 10:47:57;;;;;;;2.22;1.88;;;19.10;99.90;;;;;;5093084;28;20204;-58
2021/08/28 10:50:24;;;;;;;2.05;1.70;;;19.40;99.90;;;;;;5093690;28;20239;-62
2021/08/28 10:52:51;;;;;;;1.77;1.23;;;19.70;99.90;;;;;;5093927;28;20220;-58
2021/08/28 10:55:18;;;;;;;2.22;1.77;;;19.90;99.90;;;;;;5093835;28;20578;-62
2021/08/28 10:57:45;;;;;;;2.22;1.90;;;20.30;99.90;;;;;;5093925;28;20208;-60
2021/08/28 11:00:14;;;;;;;1.73;1.52;;;20.80;99.90;;;;;;5093617;28;20208;-61
2021/08/28 11:02:53;;;;;;;2.30;1.30;;;21.20;99.90;;;;;;5093419;28;20204;-61
2021/08/28 11:05:21;;;;;;;1.40;1.30;;;21.30;99.90;;;;;;5093369;28;20215;-61
2021/08/28 11:07:48;;;;;;;1.58;1.25;;;21.70;99.90;;;;;;5093285;28;20299;-64
2021/08/28 11:10:18;;;;;;;1.20;1.10;;;22.10;99.90;;;;;;5092852;28;20223;-61
2021/08/28 11:12:51;;;;;;;2.25;1.70;;;22.20;99.90;;;;;;5092577;28;20749;-60
2021/08/28 11:15:51;;;;;;;3.55;2.30;;;22.10;99.90;;;;;;5092412;28;20207;-62
2021/08/28 11:18:45;;;;;;;1.83;1.15;;;22.20;99.90;;;;;;5092836;28;20295;-60
2021/08/28 11:21:12;;;;;;;2.28;1.20;;;22.50;99.90;;;;;;5092610;28;20201;-60
2021/08/28 11:23:47;;;;;;;2.08;1.33;;;23.00;99.90;;;;;;5092624;28;20220;-61
2021/08/28 11:26:33;;;;;;;1.95;1.20;;;23.30;99.90;;;;;;5093174;28;20203;-62
2021/08/28 11:29:00;;;;;;;2.58;1.50;;;23.50;99.90;;;;;;5092797;28;20261;-61
2021/08/28 11:31:44;;;;;;;1.38;1.13;;;23.10;99.90;;;;;;5092620;28;20699;-61
2021/08/28 11:34:12;;;;;;;2.28;1.50;;;22.80;99.90;;;;;;5092530;28;20232;-60
2021/08/28 11:36:39;;;;;;;1.60;1.10;;;22.90;99.90;;;;;;5092880;28;20262;-60
2021/08/28 11:39:22;;;;;;;1.15;0.90;;;23.10;99.90;;;;;;5092137;28;20446;-60
2021/08/28 11:41:49;;;;;;;1.30;0.90;;;23.10;99.90;;;;;;5092840;28;20237;-61
2021/08/28 11:44:16;;;;;;;1.30;0.90;;;22.90;99.90;;;;;;5092202;28;20581;-60
2021/08/28 11:46:47;;;;;;;1.70;0.90;;;22.60;99.90;;;;;;5092447;28;20200;-61
2021/08/28 11:49:15;;;;;;;2.30;1.17;;;22.80;99.90;;;;;;5092340;28;20615;-60
2021/08/28 11:51:42;;;;;;;1.60;1.00;;;23.00;99.90;;;;;;5092591;28;20722;-59
2021/08/28 11:54:11;;;;;;;2.17;1.98;;;23.20;99.90;;;;;;5092250;28;20259;-59
2021/08/28 11:56:37;;;;;;;1.63;1.05;;;23.20;99.90;;;;;;5093091;28;20672;-60
2021/08/28 11:59:07;;;;;;;1.77;0.90;;;23.20;99.90;;;;;;5092059;28;20208;-59
2021/08/28 12:01:35;;;;;;;1.52;1.38;;;22.70;99.90;;;;;;5092689;28;20200;-61
2021/08/28 12:04:06;;;;;;;3.10;1.48;;;22.30;99.90;;;;;;5092345;28;20302;-59
2021/08/28 12:06:35;;;;;;;1.58;1.10;;;22.20;99.90;;;;;;5092532;28;20261;-60
2021/08/28 12:09:04;;;;;;;2.47;1.25;;;22.20;99.90;;;;;;5092067;28;20208;-61
2021/08/28 12:11:30;;;;;;;1.73;1.13;;;22.30;99.90;;;;;;5092081;28;20227;-58
2021/08/28 12:14:01;;;;;;;1.10;1.00;;;22.30;99.90;;;;;;5091952;28;20235;-59
2021/08/28 12:16:30;;;;;;;1.10;1.00;;;22.10;99.90;;;;;;5092265;28;20212;-59
2021/08/28 12:19:01;;;;;;;1.33;0.90;;;21.90;99.90;;;;;;5091991;28;20562;-61
2021/08/28 12:21:29;;;;;;;1.63;1.15;;;21.90;99.90;;;;;;5092126;28;20219;-59
2021/08/28 12:24:10;;;;;;;1.00;0.90;;;21.80;99.90;;;;;;5091780;28;20227;-60
2021/08/28 12:26:37;;;;;;;1.48;0.80;;;21.80;99.90;;;;;;5092061;28;20215;-58
2021/08/28 12:29:05;;;;;;;0.68;0.68;;;21.80;99.90;;;;;;5091862;28;20208;-60
2021/08/28 12:31:32;;;;;;;0.90;0.88;;;21.80;99.90;;;;;;5091612;28;20224;-57
2021/08/28 12:34:02;;;;;;;1.40;1.30;;;21.90;99.90;;;;;;5091443;28;20911;-61
2021/08/28 12:36:30;;;;;;;2.28;1.67;;;22.00;99.90;;;;;;5091692;28;20243;-60
2021/08/28 12:39:08;;;;;;;0.60;0.60;;;22.20;99.90;;;;;;5091444;28;20343;-60
2021/08/28 12:41:35;;;;;;;1.55;1.00;;;22.50;99.90;;;;;;5092174;28;20233;-60
2021/08/28 12:44:03;;;;;;;1.00;0.70;;;22.90;99.90;;;;;;5091630;28;20277;-61
2021/08/28 12:46:30;;;;;;;1.65;0.85;;;23.00;99.90;;;;;;5091771;28;20208;-60
2021/08/28 12:49:14;;;;;;;0.65;0.63;;;23.20;99.90;;;;;;5091608;28;20204;-60